createdAt,value
2022-09-14T00:00:02.425Z,15.99
2022-09-14T00:02:37.411Z,15.98
2022-09-14T00:05:05.471Z,15.98
2022-09-14T00:07:32.902Z,15.96
2022-09-14T00:10:00.812Z,15.95
2022-09-14T00:12:28.288Z,15.92
2022-09-14T00:14:55.836Z,15.90
2022-09-14T00:17:23.601Z,15.87
2022-09-14T00:19:51.191Z,15.84
2022-09-14T00:22:18.665Z,15.82
2022-09-14T00:24:46.286Z,15.79
2022-09-14T00:27:13.865Z,15.77
2022-09-14T00:29:41.416Z,15.77
2022-09-14T00:32:08.978Z,15.73
2022-09-14T00:34:36.566Z,15.70
2022-09-14T00:37:04.362Z,15.71
2022-09-14T00:39:31.901Z,15.66
2022-09-14T00:41:59.764Z,15.67
2022-09-14T00:44:27.225Z,15.66
2022-09-14T00:46:57.436Z,15.66
2022-09-14T00:49:31.306Z,15.68
2022-09-14T00:52:01.410Z,15.66
2022-09-14T00:54:28.851Z,15.69
2022-09-14T00:56:59.424Z,15.68
2022-09-14T00:59:31.063Z,15.67
2022-09-14T01:01:58.834Z,15.68
2022-09-14T01:04:26.440Z,15.70
2022-09-14T01:07:06.776Z,15.71
2022-09-14T01:09:56.124Z,15.68
2022-09-14T01:12:30.226Z,15.67
2022-09-14T01:15:12.193Z,15.66
2022-09-14T01:17:45.405Z,15.64
2022-09-14T01:20:27.085Z,15.66
2022-09-14T01:23:21.120Z,15.69
2022-09-14T01:26:20.534Z,15.68
2022-09-14T01:28:56.935Z,15.70
2022-09-14T01:31:46.004Z,15.72
2022-09-14T01:34:39.043Z,15.75
2022-09-14T01:37:26.262Z,15.77
2022-09-14T01:40:00.666Z,15.80
2022-09-14T01:42:29.543Z,15.84
2022-09-14T01:45:01.572Z,15.85
2022-09-14T01:47:39.964Z,15.84
2022-09-14T01:50:23.035Z,15.85
2022-09-14T01:52:56.523Z,15.89
2022-09-14T01:55:36.943Z,15.87
2022-09-14T01:58:25.883Z,15.90
2022-09-14T02:00:56.906Z,15.89
2022-09-14T02:03:31.543Z,15.92
2022-09-14T02:06:09.414Z,15.91
2022-09-14T02:08:37.522Z,15.92
2022-09-14T02:11:05.083Z,15.93
2022-09-14T02:13:33.651Z,15.96
2022-09-14T02:16:01.454Z,15.97
2022-09-14T02:18:29.314Z,15.99
2022-09-14T02:21:04.414Z,15.99
2022-09-14T02:23:32.371Z,16.01
2022-09-14T02:25:59.790Z,16.00
2022-09-14T02:28:27.333Z,15.98
2022-09-14T02:31:16.380Z,15.97
2022-09-14T02:33:59.914Z,15.98
2022-09-14T02:37:15.650Z,15.99
2022-09-14T02:40:12.084Z,15.98
2022-09-14T02:42:44.030Z,16.01
2022-09-14T02:45:43.717Z,16.00
2022-09-14T02:48:31.392Z,16.01
2022-09-14T02:51:06.572Z,16.01
2022-09-14T02:53:46.378Z,16.00
2022-09-14T02:56:15.335Z,16.00
2022-09-14T02:58:45.640Z,16.02
2022-09-14T03:01:16.843Z,16.03
2022-09-14T03:03:44.527Z,16.06
2022-09-14T03:06:12.813Z,16.08
2022-09-14T03:08:41.352Z,16.05
2022-09-14T03:11:08.983Z,16.05
2022-09-14T03:13:37.525Z,16.10
2022-09-14T03:16:07.402Z,16.09
2022-09-14T03:18:35.955Z,16.09
2022-09-14T03:21:08.340Z,16.11
2022-09-14T03:23:37.915Z,16.11
2022-09-14T03:26:14.483Z,16.10
2022-09-14T03:28:42.690Z,16.13
2022-09-14T03:31:11.652Z,16.14
2022-09-14T03:33:39.668Z,16.15
2022-09-14T03:36:12.702Z,16.18
2022-09-14T03:38:44.103Z,16.18
2022-09-14T03:41:13.343Z,16.19
2022-09-14T03:43:41.793Z,16.21
2022-09-14T03:46:14.608Z,16.20
2022-09-14T03:48:42.734Z,16.20
2022-09-14T03:51:12.964Z,16.17
2022-09-14T03:53:42.069Z,16.14
2022-09-14T03:56:15.670Z,16.13
2022-09-14T03:58:45.138Z,16.13
2022-09-14T04:01:16.099Z,16.13
2022-09-14T04:03:44.463Z,16.14
2022-09-14T04:06:12.432Z,16.17
2022-09-14T04:08:41.566Z,16.17
2022-09-14T04:11:12.167Z,16.20
2022-09-14T04:13:40.640Z,16.17
2022-09-14T04:16:08.569Z,16.17
2022-09-14T04:18:36.369Z,16.18
2022-09-14T04:21:10.467Z,16.18
2022-09-14T04:23:56.963Z,16.09
2022-09-14T04:26:28.022Z,16.02
2022-09-14T04:28:56.689Z,16.04
2022-09-14T04:31:24.893Z,15.92
2022-09-14T04:33:56.374Z,15.81
2022-09-14T04:36:28.596Z,15.83
2022-09-14T04:38:58.393Z,15.95
2022-09-14T04:41:26.782Z,15.88
2022-09-14T04:43:56.043Z,15.90
2022-09-14T04:46:26.624Z,15.88
2022-09-14T04:48:54.794Z,15.91
2022-09-14T04:51:25.093Z,15.88
2022-09-14T04:53:56.425Z,15.87
2022-09-14T04:56:24.635Z,15.88
2022-09-14T04:58:55.577Z,15.89
2022-09-14T05:01:25.816Z,15.91
2022-09-14T05:03:54.080Z,15.91
2022-09-14T05:06:24.281Z,15.95
2022-09-14T05:08:52.632Z,15.96
2022-09-14T05:11:22.395Z,15.98
2022-09-14T05:13:51.103Z,16.01
2022-09-14T05:16:21.393Z,15.97
2022-09-14T05:18:49.896Z,15.92
2022-09-14T05:21:19.533Z,15.92
2022-09-14T05:23:47.183Z,15.90
2022-09-14T05:26:15.133Z,15.91
2022-09-14T05:28:42.645Z,15.90
2022-09-14T05:31:13.237Z,15.89
2022-09-14T05:33:40.929Z,15.91
2022-09-14T05:36:09.124Z,15.93
2022-09-14T05:38:39.184Z,15.92
2022-09-14T05:41:08.304Z,15.94
2022-09-14T05:43:35.812Z,15.93
2022-09-14T05:46:10.120Z,15.93
2022-09-14T05:48:39.386Z,15.93
2022-09-14T05:51:11.573Z,15.96
2022-09-14T05:53:39.069Z,15.95
2022-09-14T05:56:11.569Z,15.97
2022-09-14T05:58:40.414Z,15.96
2022-09-14T06:01:12.321Z,16.03
2022-09-14T06:03:40.974Z,16.05
2022-09-14T06:06:10.643Z,16.01
2022-09-14T06:08:38.553Z,16.01
2022-09-14T06:11:12.183Z,15.95
2022-09-14T06:13:39.692Z,15.94
2022-09-14T06:16:09.683Z,15.93
2022-09-14T06:18:38.171Z,15.91
2022-09-14T06:21:06.860Z,15.89
2022-09-14T06:23:34.573Z,15.85
2022-09-14T06:26:04.525Z,15.82
2022-09-14T06:28:33.179Z,15.82
2022-09-14T06:31:01.434Z,15.82
2022-09-14T06:33:29.032Z,15.82
2022-09-14T06:36:02.083Z,15.82
2022-09-14T06:38:30.242Z,15.82
2022-09-14T06:40:59.778Z,15.84
2022-09-14T06:43:30.090Z,15.88
2022-09-14T06:46:04.193Z,15.92
2022-09-14T06:48:37.384Z,15.96
2022-09-14T06:51:29.644Z,16.00
2022-09-14T06:54:01.674Z,16.06
2022-09-14T06:56:32.611Z,16.10
2022-09-14T06:59:00.304Z,16.14
2022-09-14T07:01:28.055Z,16.19
2022-09-14T07:03:56.212Z,16.19
2022-09-14T07:06:25.904Z,16.20
2022-09-14T07:08:54.528Z,16.13
2022-09-14T07:11:29.671Z,16.04
2022-09-14T07:14:00.147Z,15.98
2022-09-14T07:16:28.923Z,16.01
2022-09-14T07:18:58.149Z,16.05
2022-09-14T07:21:26.525Z,16.11
2022-09-14T07:23:55.751Z,16.13
2022-09-14T07:26:28.402Z,16.16
2022-09-14T07:28:59.000Z,16.21
2022-09-14T07:31:35.495Z,16.22
2022-09-14T07:34:05.010Z,16.26
2022-09-14T07:36:35.243Z,16.36
2022-09-14T07:39:05.758Z,16.38
2022-09-14T07:41:34.514Z,16.49
2022-09-14T07:44:07.533Z,16.52
2022-09-14T07:46:40.799Z,16.57
2022-09-14T07:49:10.084Z,16.70
2022-09-14T07:51:38.213Z,16.77
2022-09-14T07:54:07.033Z,16.80
2022-09-14T07:56:35.280Z,16.90
2022-09-14T07:59:31.293Z,17.02
2022-09-14T08:01:52.828Z,17.16
2022-09-14T08:04:21.373Z,17.24
2022-09-14T08:06:48.873Z,17.33
2022-09-14T08:09:16.196Z,17.35
2022-09-14T08:11:43.624Z,17.37
2022-09-14T08:14:13.061Z,17.35
2022-09-14T08:16:41.698Z,17.41
2022-09-14T08:19:18.446Z,17.48
2022-09-14T08:21:48.086Z,17.47
2022-09-14T08:24:21.392Z,17.48
2022-09-14T08:26:50.075Z,17.51
2022-09-14T08:29:18.881Z,17.53
2022-09-14T08:31:47.250Z,17.51
2022-09-14T08:34:16.587Z,17.55
2022-09-14T08:36:45.402Z,17.61
2022-09-14T08:39:15.534Z,17.73
2022-09-14T08:42:00.373Z,17.83
2022-09-14T08:44:43.712Z,17.86
2022-09-14T08:47:29.444Z,17.61
2022-09-14T08:50:13.836Z,17.46
2022-09-14T08:52:45.342Z,17.31
2022-09-14T08:55:28.319Z,17.08
2022-09-14T08:58:06.080Z,17.00
2022-09-14T09:00:46.749Z,16.92
2022-09-14T09:03:36.000Z,17.00
2022-09-14T09:06:18.452Z,16.94
2022-09-14T09:08:51.708Z,16.89
2022-09-14T09:11:22.624Z,16.66
2022-09-14T09:13:52.102Z,16.49
2022-09-14T09:16:23.421Z,16.22
2022-09-14T09:18:57.255Z,16.32
2022-09-14T09:21:31.493Z,16.36
2022-09-14T09:24:23.710Z,16.41
2022-09-14T09:26:51.663Z,16.44
2022-09-14T09:29:19.245Z,16.43
2022-09-14T09:32:09.098Z,16.35
2022-09-14T09:34:55.243Z,16.36
2022-09-14T09:37:40.579Z,16.49
2022-09-14T09:40:23.351Z,16.58
2022-09-14T09:43:11.235Z,16.50
2022-09-14T09:45:59.022Z,16.51
2022-09-14T09:48:42.648Z,16.44
2022-09-14T09:51:13.893Z,16.60
2022-09-14T09:53:57.129Z,16.71
2022-09-14T09:56:28.435Z,16.72
2022-09-14T09:58:56.058Z,16.70
2022-09-14T10:01:36.361Z,16.69
2022-09-14T10:04:17.554Z,16.39
2022-09-14T10:06:48.114Z,16.12
2022-09-14T10:09:20.579Z,16.11
2022-09-14T10:11:57.442Z,16.02
2022-09-14T10:14:37.675Z,16.02
2022-09-14T10:17:18.294Z,16.10
2022-09-14T10:19:54.157Z,16.19
2022-09-14T10:22:32.826Z,16.12
2022-09-14T10:25:15.354Z,16.07
2022-09-14T10:27:49.353Z,15.94
2022-09-14T10:30:18.205Z,16.03
2022-09-14T10:33:02.428Z,16.13
2022-09-14T10:35:48.146Z,16.26
2022-09-14T10:38:52.989Z,16.31
2022-09-14T10:41:34.434Z,16.34
2022-09-14T10:44:22.760Z,16.34
2022-09-14T10:47:04.741Z,16.39
2022-09-14T10:49:56.714Z,16.59
2022-09-14T10:52:48.580Z,16.76
2022-09-14T10:55:24.395Z,16.83
2022-09-14T10:58:00.733Z,17.01
2022-09-14T11:00:36.303Z,16.96
2022-09-14T11:03:25.063Z,16.87
2022-09-14T11:06:29.804Z,16.75
2022-09-14T11:09:30.683Z,16.59
2022-09-14T11:12:04.933Z,16.65
2022-09-14T11:14:51.798Z,16.82
2022-09-14T11:17:40.742Z,16.85
2022-09-14T11:20:42.916Z,16.75
2022-09-14T11:23:24.530Z,16.81
2022-09-14T11:26:00.453Z,16.68
2022-09-14T11:28:34.452Z,16.62
2022-09-14T11:31:07.775Z,16.65
2022-09-14T11:33:49.085Z,16.71
2022-09-14T11:36:24.019Z,16.82
2022-09-14T11:39:10.825Z,16.91
2022-09-14T11:41:49.854Z,16.61
2022-09-14T11:44:25.143Z,16.37
2022-09-14T11:47:14.441Z,16.28
2022-09-14T11:50:02.943Z,16.24
2022-09-14T11:52:32.919Z,16.22
2022-09-14T11:55:03.092Z,16.17
2022-09-14T11:57:33.692Z,16.09
2022-09-14T12:00:06.958Z,16.15
2022-09-14T12:02:38.537Z,16.15
2022-09-14T12:05:09.418Z,16.22
2022-09-14T12:07:39.767Z,16.39
2022-09-14T12:10:19.516Z,16.55
2022-09-14T12:13:17.537Z,16.70
2022-09-14T12:15:45.394Z,16.86
2022-09-14T12:18:13.531Z,16.94
2022-09-14T12:20:48.488Z,17.04
2022-09-14T12:23:24.940Z,17.12
2022-09-14T12:26:16.973Z,17.14
2022-09-14T12:28:50.739Z,17.20
2022-09-14T12:31:55.534Z,17.24
2022-09-14T12:34:25.759Z,17.35
2022-09-14T12:37:30.413Z,17.32
2022-09-14T12:40:20.627Z,17.43
2022-09-14T12:42:50.760Z,17.47
2022-09-14T12:46:01.068Z,17.34
2022-09-14T12:48:48.008Z,17.37
2022-09-14T12:51:50.410Z,17.37
2022-09-14T12:54:28.434Z,17.29
2022-09-14T12:57:28.275Z,17.15
2022-09-14T13:00:19.118Z,17.14
2022-09-14T13:02:48.593Z,17.29
2022-09-14T13:05:24.103Z,17.28
2022-09-14T13:07:57.880Z,17.28
2022-09-14T13:10:36.639Z,17.42
2022-09-14T13:13:21.860Z,17.62
2022-09-14T13:15:54.347Z,17.60
2022-09-14T13:18:23.560Z,17.67
2022-09-14T13:20:58.244Z,17.67
2022-09-14T13:23:48.866Z,17.86
2022-09-14T13:26:45.057Z,17.90
2022-09-14T13:29:16.365Z,17.76
2022-09-14T13:31:47.142Z,17.57
2022-09-14T13:34:40.705Z,17.46
2022-09-14T13:37:14.901Z,17.37
2022-09-14T13:39:50.961Z,17.41
2022-09-14T13:42:19.403Z,17.42
2022-09-14T13:44:49.787Z,17.51
2022-09-14T13:47:21.500Z,17.61
2022-09-14T13:49:51.535Z,17.71
2022-09-14T13:52:38.524Z,17.69
2022-09-14T13:55:27.494Z,17.63
2022-09-14T13:58:24.507Z,17.52
2022-09-14T14:01:00.989Z,17.57
2022-09-14T14:03:39.889Z,17.35
2022-09-14T14:06:21.243Z,17.30
2022-09-14T14:08:59.952Z,17.20
2022-09-14T14:11:36.729Z,17.24
2022-09-14T14:14:16.629Z,17.16
2022-09-14T14:17:22.065Z,17.06
2022-09-14T14:19:52.752Z,17.11
2022-09-14T14:22:25.280Z,17.03
2022-09-14T14:27:46.839Z,16.96
2022-09-14T14:30:20.202Z,16.92
2022-09-14T14:32:56.097Z,16.83
2022-09-14T14:35:27.834Z,16.96
2022-09-14T14:37:55.877Z,16.96
2022-09-14T14:40:24.892Z,16.92
2022-09-14T14:42:52.850Z,16.82
2022-09-14T14:45:26.631Z,16.72
2022-09-14T14:47:55.775Z,16.66
2022-09-14T14:50:29.093Z,16.60
2022-09-14T14:52:57.479Z,16.65
2022-09-14T14:55:25.773Z,16.62
2022-09-14T14:57:53.873Z,16.61
2022-09-14T15:00:23.744Z,16.54
2022-09-14T15:02:51.717Z,16.45
2022-09-14T15:05:19.852Z,16.38
2022-09-14T15:07:50.144Z,16.34
2022-09-14T15:10:18.759Z,16.31
2022-09-14T15:12:46.524Z,16.33
2022-09-14T15:15:19.957Z,16.33
2022-09-14T15:17:47.932Z,16.35
2022-09-14T15:20:15.616Z,16.39
2022-09-14T15:22:43.115Z,16.44
2022-09-14T15:25:12.241Z,16.48
2022-09-14T15:27:40.832Z,16.47
2022-09-14T15:30:09.979Z,16.49
2022-09-14T15:32:37.663Z,16.54
2022-09-14T15:35:07.374Z,16.51
2022-09-14T15:37:34.839Z,16.52
2022-09-14T15:40:03.683Z,16.48
2022-09-14T15:42:31.395Z,16.42
2022-09-14T15:44:58.794Z,16.45
2022-09-14T15:47:26.300Z,16.48
2022-09-14T15:49:53.782Z,16.43
2022-09-14T15:52:21.519Z,16.46
2022-09-14T15:54:49.389Z,16.46
2022-09-14T15:57:16.917Z,16.46
2022-09-14T15:59:44.399Z,16.45
2022-09-14T16:02:14.730Z,16.46
2022-09-14T16:04:42.294Z,16.50
2022-09-14T16:07:10.069Z,16.45
2022-09-14T16:09:42.692Z,16.40
2022-09-14T16:12:12.434Z,16.42
2022-09-14T16:14:40.233Z,16.46
2022-09-14T16:17:09.566Z,16.46
2022-09-14T16:19:37.174Z,16.46
2022-09-14T16:22:04.959Z,16.49
2022-09-14T16:24:33.023Z,16.50
2022-09-14T16:27:01.020Z,16.43
2022-09-14T16:29:28.429Z,16.42
2022-09-14T16:31:56.093Z,16.49
2022-09-14T16:34:29.648Z,16.49
2022-09-14T16:36:58.856Z,16.46
2022-09-14T16:39:29.872Z,16.41
2022-09-14T16:41:58.702Z,16.40
2022-09-14T16:44:27.899Z,16.39
2022-09-14T16:46:57.917Z,16.41
2022-09-14T16:49:28.256Z,16.40
2022-09-14T16:51:57.494Z,16.43
2022-09-14T16:54:26.051Z,16.45
2022-09-14T16:56:58.265Z,16.52
2022-09-14T16:59:26.391Z,16.46
2022-09-14T17:01:55.442Z,16.48
2022-09-14T17:04:24.759Z,16.48
2022-09-14T17:06:53.370Z,16.53
2022-09-14T17:09:23.493Z,16.55
2022-09-14T17:11:51.619Z,16.61
2022-09-14T17:14:22.436Z,16.65
2022-09-14T17:16:50.178Z,16.73
2022-09-14T17:19:18.094Z,16.68
2022-09-14T17:21:47.257Z,16.68
2022-09-14T17:24:16.116Z,16.70
2022-09-14T17:26:43.873Z,16.67
2022-09-14T17:29:12.523Z,16.66
2022-09-14T17:31:42.083Z,16.68
2022-09-14T17:34:11.574Z,16.69
2022-09-14T17:36:39.326Z,16.70
2022-09-14T17:39:11.752Z,16.74
2022-09-14T17:41:42.911Z,16.70
2022-09-14T17:44:12.877Z,16.70
2022-09-14T17:46:48.575Z,16.70
2022-09-14T17:49:18.780Z,16.71
2022-09-14T17:51:46.268Z,16.75
2022-09-14T17:54:13.783Z,16.71
2022-09-14T17:56:41.572Z,16.70
2022-09-14T17:59:16.039Z,16.65
2022-09-14T18:01:43.913Z,16.64
2022-09-14T18:04:13.277Z,16.61
2022-09-14T18:06:43.402Z,16.51
2022-09-14T18:09:13.954Z,16.51
2022-09-14T18:11:42.292Z,16.49
2022-09-14T18:14:12.874Z,16.50
2022-09-14T18:16:41.377Z,16.54
2022-09-14T18:19:09.499Z,16.55
2022-09-14T18:21:37.046Z,16.59
2022-09-14T18:24:05.226Z,16.62
2022-09-14T18:26:32.750Z,16.60
2022-09-14T18:29:00.250Z,16.62
2022-09-14T18:31:28.159Z,16.63
2022-09-14T18:33:59.469Z,16.62
2022-09-14T18:36:29.424Z,16.62
2022-09-14T18:38:58.900Z,16.60
2022-09-14T18:41:29.623Z,16.56
2022-09-14T18:43:58.309Z,16.59
2022-09-14T18:46:28.273Z,16.54
2022-09-14T18:48:59.884Z,16.54
2022-09-14T18:51:29.044Z,16.51
2022-09-14T18:54:03.690Z,16.53
2022-09-14T18:56:34.860Z,16.48
2022-09-14T18:59:04.160Z,16.46
2022-09-14T19:01:34.012Z,16.47
2022-09-14T19:04:03.913Z,16.47
2022-09-14T19:06:33.263Z,16.36
2022-09-14T19:09:00.910Z,16.29
2022-09-14T19:11:30.685Z,16.19
2022-09-14T19:14:01.687Z,16.09
2022-09-14T19:16:30.389Z,16.11
2022-09-14T19:18:58.077Z,16.11
2022-09-14T19:21:28.026Z,16.11
2022-09-14T19:23:57.743Z,16.09
2022-09-14T19:26:25.289Z,16.04
2022-09-14T19:28:53.084Z,15.92
2022-09-14T19:31:23.569Z,15.91
2022-09-14T19:33:52.214Z,15.85
2022-09-14T19:36:22.516Z,15.66
2022-09-14T19:38:52.226Z,15.74
2022-09-14T19:41:21.450Z,15.74
2022-09-14T19:43:49.395Z,15.70
2022-09-14T19:46:23.490Z,15.58
2022-09-14T19:48:52.119Z,15.55
2022-09-14T19:51:25.370Z,15.59
2022-09-14T19:53:55.943Z,15.69
2022-09-14T19:56:25.990Z,15.68
2022-09-14T19:58:55.504Z,15.53
2022-09-14T20:01:25.629Z,15.42
2022-09-14T20:03:53.972Z,15.37
2022-09-14T20:06:26.096Z,15.34
2022-09-14T20:08:56.392Z,15.29
2022-09-14T20:11:26.032Z,15.29
2022-09-14T20:13:55.402Z,15.31
2022-09-14T20:16:24.662Z,15.35
2022-09-14T20:18:52.841Z,15.35
2022-09-14T20:21:23.193Z,15.32
2022-09-14T20:24:15.178Z,15.28
2022-09-14T20:26:50.574Z,15.33
2022-09-14T20:29:20.293Z,15.38
2022-09-14T20:31:48.025Z,15.46
2022-09-14T20:34:18.211Z,15.34
2022-09-14T20:36:46.915Z,15.32
2022-09-14T20:39:14.773Z,15.36
2022-09-14T20:41:42.574Z,15.37
2022-09-14T20:44:10.694Z,15.25
2022-09-14T20:46:40.907Z,15.24
2022-09-14T20:49:11.843Z,15.22
2022-09-14T20:51:40.283Z,15.19
2022-09-14T20:54:10.054Z,15.13
2022-09-14T20:56:37.616Z,15.09
2022-09-14T20:59:07.422Z,15.06
2022-09-14T21:01:37.049Z,15.06
2022-09-14T21:04:12.044Z,15.16
2022-09-14T21:06:43.395Z,15.15
2022-09-14T21:09:12.353Z,15.10
2022-09-14T21:11:40.052Z,15.09
2022-09-14T21:14:08.823Z,15.09
2022-09-14T21:16:43.125Z,15.01
2022-09-14T21:19:22.384Z,14.98
2022-09-14T21:21:50.330Z,14.96
2022-09-14T21:24:22.139Z,14.93
2022-09-14T21:26:50.774Z,14.99
2022-09-14T21:29:23.741Z,15.08
2022-09-14T21:31:52.325Z,15.17
2022-09-14T21:34:19.956Z,15.20
2022-09-14T21:36:49.715Z,15.25
2022-09-14T21:39:21.714Z,15.17
2022-09-14T21:41:54.465Z,15.08
2022-09-14T21:44:32.367Z,14.99
2022-09-14T21:47:00.792Z,14.99
2022-09-14T21:49:28.475Z,15.07
2022-09-14T21:51:55.978Z,15.12
2022-09-14T21:54:23.879Z,15.09
2022-09-14T21:56:52.946Z,15.01
2022-09-14T21:59:22.045Z,14.95
2022-09-14T22:01:50.320Z,14.89
2022-09-14T22:04:20.572Z,14.84
2022-09-14T22:06:50.512Z,14.69
2022-09-14T22:09:19.755Z,14.56
2022-09-14T22:11:47.467Z,14.50
2022-09-14T22:14:20.426Z,14.53
2022-09-14T22:16:49.104Z,14.40
2022-09-14T22:19:20.285Z,14.32
2022-09-14T22:21:48.586Z,14.34
2022-09-14T22:24:19.806Z,14.35
2022-09-14T22:26:47.793Z,14.35
2022-09-14T22:29:15.314Z,14.38
2022-09-14T22:31:44.940Z,14.35
2022-09-14T22:34:13.256Z,14.23
2022-09-14T22:36:41.086Z,14.18
2022-09-14T22:39:09.986Z,14.21
2022-09-14T22:41:37.761Z,14.17
2022-09-14T22:44:06.173Z,14.16
2022-09-14T22:46:34.350Z,14.12
2022-09-14T22:49:01.861Z,14.04
2022-09-14T22:55:43.131Z,14.00
2022-09-14T22:58:12.410Z,14.00
2022-09-14T23:00:40.935Z,13.97
2022-09-14T23:03:10.252Z,13.94
2022-09-14T23:05:39.042Z,13.90
2022-09-14T23:08:08.240Z,13.89
2022-09-14T23:10:39.011Z,13.84
2022-09-14T23:13:06.445Z,13.81
2022-09-14T23:15:37.705Z,13.86
2022-09-14T23:18:05.875Z,13.85
2022-09-14T23:20:41.722Z,13.86
2022-09-14T23:23:10.444Z,13.87
2022-09-14T23:25:40.325Z,13.87
2022-09-14T23:28:11.025Z,13.87
2022-09-14T23:30:39.040Z,13.89
2022-09-14T23:33:06.839Z,13.89
2022-09-14T23:35:37.579Z,13.83
2022-09-14T23:38:05.370Z,13.87
2022-09-14T23:40:32.868Z,13.87
2022-09-14T23:43:00.328Z,13.88
2022-09-14T23:45:27.789Z,13.88
2022-09-14T23:47:55.260Z,13.91
2022-09-14T23:50:23.392Z,13.91
2022-09-14T23:52:50.877Z,13.91
2022-09-14T23:55:18.441Z,13.86
2022-09-14T23:57:45.986Z,13.89
